sensor_id;sensor_type;location;lat;lon;timestamp;pressure;altitude;pressure_sealevel;temperature;humidity
66273;BME280;58450;52.150;4.466;2023-03-13T00:00:52;100032.97;;;9.92;100.00
66273;BME280;58450;52.150;4.466;2023-03-13T00:03:21;100022.59;;;9.82;100.00
66273;BME280;58450;52.150;4.466;2023-03-13T00:05:48;100014.78;;;9.94;100.00
66273;BME280;58450;52.150;4.466;2023-03-13T00:08:16;100010.66;;;9.98;100.00
66273;BME280;58450;52.150;4.466;2023-03-13T00:10:43;99999.28;;;9.96;100.00
66273;BME280;58450;52.150;4.466;2023-03-13T00:13:12;100001.16;;;10.09;100.00
66273;BME280;58450;52.150;4.466;2023-03-13T00:15:40;99993.28;;;10.01;100.00
66273;BME280;58450;52.150;4.466;2023-03-13T00:18:08;99970.97;;;10.00;100.00
66273;BME280;58450;52.150;4.466;2023-03-13T00:20:35;99976.75;;;9.97;100.00
66273;BME280;58450;52.150;4.466;2023-03-13T00:23:03;99959.59;;;9.98;100.00
66273;BME280;58450;52.150;4.466;2023-03-13T00:25:30;99966.00;;;9.97;100.00
66273;BME280;58450;52.150;4.466;2023-03-13T00:27:58;99951.94;;;9.95;100.00
66273;BME280;58450;52.150;4.466;2023-03-13T00:30:27;99926.94;;;10.01;100.00
66273;BME280;58450;52.150;4.466;2023-03-13T00:32:54;99952.75;;;9.89;100.00
66273;BME280;58450;52.150;4.466;2023-03-13T00:35:22;99920.94;;;10.06;100.00
66273;BME280;58450;52.150;4.466;2023-03-13T00:37:49;99941.00;;;10.03;100.00
66273;BME280;58450;52.150;4.466;2023-03-13T00:40:17;99924.84;;;10.17;100.00
66273;BME280;58450;52.150;4.466;2023-03-13T00:42:45;99904.38;;;10.16;100.00
66273;BME280;58450;52.150;4.466;2023-03-13T00:45:12;99925.06;;;10.09;100.00
66273;BME280;58450;52.150;4.466;2023-03-13T00:47:41;99899.59;;;10.18;100.00
66273;BME280;58450;52.150;4.466;2023-03-13T00:50:09;99920.09;;;10.19;100.00
66273;BME280;58450;52.150;4.466;2023-03-13T00:52:37;99885.94;;;10.26;100.00
66273;BME280;58450;52.150;4.466;2023-03-13T00:55:06;99882.00;;;10.35;100.00
66273;BME280;58450;52.150;4.466;2023-03-13T00:57:34;99902.72;;;10.22;100.00
66273;BME280;58450;52.150;4.466;2023-03-13T01:00:03;99872.09;;;10.29;100.00
66273;BME280;58450;52.150;4.466;2023-03-13T01:02:32;99873.75;;;10.37;100.00
66273;BME280;58450;52.150;4.466;2023-03-13T01:05:01;99857.63;;;10.44;100.00
66273;BME280;58450;52.150;4.466;2023-03-13T01:07:28;99854.31;;;10.48;100.00
66273;BME280;58450;52.150;4.466;2023-03-13T01:09:56;99854.91;;;10.57;100.00
66273;BME280;58450;52.150;4.466;2023-03-13T01:12:23;99841.25;;;10.52;100.00
66273;BME280;58450;52.150;4.466;2023-03-13T01:14:51;99844.09;;;10.71;100.00
66273;BME280;58450;52.150;4.466;2023-03-13T01:17:19;99858.78;;;10.68;100.00
66273;BME280;58450;52.150;4.466;2023-03-13T01:19:46;99850.47;;;10.83;100.00
66273;BME280;58450;52.150;4.466;2023-03-13T01:22:17;99845.91;;;10.84;100.00
66273;BME280;58450;52.150;4.466;2023-03-13T01:24:45;99832.84;;;10.87;100.00
66273;BME280;58450;52.150;4.466;2023-03-13T01:27:15;99842.16;;;10.91;100.00
66273;BME280;58450;52.150;4.466;2023-03-13T01:29:42;99833.97;;;11.12;100.00
66273;BME280;58450;52.150;4.466;2023-03-13T01:32:10;99822.41;;;11.04;100.00
66273;BME280;58450;52.150;4.466;2023-03-13T01:34:37;99820.88;;;11.15;100.00
66273;BME280;58450;52.150;4.466;2023-03-13T01:37:05;99800.53;;;11.26;100.00
66273;BME280;58450;52.150;4.466;2023-03-13T01:39:34;99827.53;;;11.13;100.00
66273;BME280;58450;52.150;4.466;2023-03-13T01:42:02;99791.94;;;11.11;100.00
66273;BME280;58450;52.150;4.466;2023-03-13T01:44:48;99784.63;;;11.18;100.00
66273;BME280;58450;52.150;4.466;2023-03-13T01:47:17;99790.88;;;11.12;100.00
66273;BME280;58450;52.150;4.466;2023-03-13T01:49:45;99787.31;;;11.18;100.00
66273;BME280;58450;52.150;4.466;2023-03-13T01:52:19;99762.06;;;11.12;100.00
66273;BME280;58450;52.150;4.466;2023-03-13T01:54:54;99793.78;;;11.10;100.00
66273;BME280;58450;52.150;4.466;2023-03-13T01:57:30;99762.50;;;11.09;100.00
66273;BME280;58450;52.150;4.466;2023-03-13T02:00:03;99764.13;;;11.17;100.00
66273;BME280;58450;52.150;4.466;2023-03-13T02:02:36;99753.09;;;11.25;100.00
66273;BME280;58450;52.150;4.466;2023-03-13T02:05:07;99745.56;;;11.34;100.00
66273;BME280;58450;52.150;4.466;2023-03-13T02:07:41;99725.66;;;11.35;100.00
66273;BME280;58450;52.150;4.466;2023-03-13T02:10:15;99754.25;;;11.36;100.00
66273;BME280;58450;52.150;4.466;2023-03-13T02:12:44;99723.75;;;11.42;100.00
66273;BME280;58450;52.150;4.466;2023-03-13T02:15:14;99720.69;;;11.38;100.00
66273;BME280;58450;52.150;4.466;2023-03-13T02:17:44;99730.56;;;11.45;100.00
66273;BME280;58450;52.150;4.466;2023-03-13T02:20:16;99742.84;;;11.41;100.00
66273;BME280;58450;52.150;4.466;2023-03-13T02:22:52;99718.88;;;11.51;100.00
66273;BME280;58450;52.150;4.466;2023-03-13T02:25:38;99712.63;;;11.57;100.00
66273;BME280;58450;52.150;4.466;2023-03-13T02:28:11;99724.66;;;11.55;100.00
66273;BME280;58450;52.150;4.466;2023-03-13T02:30:43;99711.00;;;11.75;100.00
66273;BME280;58450;52.150;4.466;2023-03-13T02:33:12;99714.38;;;11.70;100.00
66273;BME280;58450;52.150;4.466;2023-03-13T02:35:41;99718.72;;;11.71;100.00
66273;BME280;58450;52.150;4.466;2023-03-13T02:38:14;99703.59;;;11.70;100.00
66273;BME280;58450;52.150;4.466;2023-03-13T02:40:47;99718.88;;;11.76;100.00
66273;BME280;58450;52.150;4.466;2023-03-13T02:43:22;99693.03;;;11.87;100.00
66273;BME280;58450;52.150;4.466;2023-03-13T02:46:01;99717.00;;;11.95;100.00
66273;BME280;58450;52.150;4.466;2023-03-13T02:48:36;99726.69;;;12.03;100.00
66273;BME280;58450;52.150;4.466;2023-03-13T02:51:11;99710.31;;;12.05;100.00
66273;BME280;58450;52.150;4.466;2023-03-13T02:53:45;99701.97;;;12.06;100.00
66273;BME280;58450;52.150;4.466;2023-03-13T02:56:19;99704.38;;;12.15;100.00
66273;BME280;58450;52.150;4.466;2023-03-13T02:58:50;99727.44;;;12.29;100.00
66273;BME280;58450;52.150;4.466;2023-03-13T03:01:17;99695.00;;;12.36;100.00
66273;BME280;58450;52.150;4.466;2023-03-13T03:03:45;99709.84;;;12.26;100.00
66273;BME280;58450;52.150;4.466;2023-03-13T03:06:13;99680.81;;;12.40;100.00
66273;BME280;58450;52.150;4.466;2023-03-13T03:08:41;99664.97;;;12.44;100.00
66273;BME280;58450;52.150;4.466;2023-03-13T03:11:10;99708.56;;;12.60;100.00
66273;BME280;58450;52.150;4.466;2023-03-13T03:13:40;99669.38;;;12.57;100.00
66273;BME280;58450;52.150;4.466;2023-03-13T03:16:09;99672.41;;;12.49;100.00
66273;BME280;58450;52.150;4.466;2023-03-13T03:18:40;99675.00;;;12.55;100.00
66273;BME280;58450;52.150;4.466;2023-03-13T03:21:07;99702.00;;;12.55;100.00
66273;BME280;58450;52.150;4.466;2023-03-13T03:23:35;99664.75;;;12.76;100.00
66273;BME280;58450;52.150;4.466;2023-03-13T03:26:04;99657.72;;;12.87;100.00
66273;BME280;58450;52.150;4.466;2023-03-13T03:28:34;99632.94;;;12.66;100.00
66273;BME280;58450;52.150;4.466;2023-03-13T03:31:07;99647.28;;;12.79;100.00
66273;BME280;58450;52.150;4.466;2023-03-13T03:33:36;99703.69;;;12.68;100.00
66273;BME280;58450;52.150;4.466;2023-03-13T03:36:06;99670.41;;;12.86;100.00
66273;BME280;58450;52.150;4.466;2023-03-13T03:38:35;99702.69;;;12.81;100.00
66273;BME280;58450;52.150;4.466;2023-03-13T03:41:05;99679.41;;;12.68;100.00
66273;BME280;58450;52.150;4.466;2023-03-13T03:43:33;99665.78;;;12.63;100.00
66273;BME280;58450;52.150;4.466;2023-03-13T03:46:01;99620.34;;;12.60;100.00
66273;BME280;58450;52.150;4.466;2023-03-13T03:48:31;99657.34;;;12.71;100.00
66273;BME280;58450;52.150;4.466;2023-03-13T03:50:58;99648.53;;;12.76;100.00
66273;BME280;58450;52.150;4.466;2023-03-13T03:53:26;99646.19;;;12.68;100.00
66273;BME280;58450;52.150;4.466;2023-03-13T03:55:54;99651.91;;;12.60;100.00
66273;BME280;58450;52.150;4.466;2023-03-13T03:58:21;99652.16;;;12.58;100.00
66273;BME280;58450;52.150;4.466;2023-03-13T04:00:49;99627.63;;;12.60;100.00
66273;BME280;58450;52.150;4.466;2023-03-13T04:03:17;99634.53;;;12.55;100.00
66273;BME280;58450;52.150;4.466;2023-03-13T04:05:46;99622.47;;;12.58;100.00
66273;BME280;58450;52.150;4.466;2023-03-13T04:08:13;99641.94;;;12.60;100.00
66273;BME280;58450;52.150;4.466;2023-03-13T04:10:41;99622.59;;;12.63;100.00
66273;BME280;58450;52.150;4.466;2023-03-13T04:13:09;99642.41;;;12.57;100.00
66273;BME280;58450;52.150;4.466;2023-03-13T04:15:37;99652.16;;;12.58;100.00
66273;BME280;58450;52.150;4.466;2023-03-13T04:18:04;99652.34;;;12.45;100.00
66273;BME280;58450;52.150;4.466;2023-03-13T04:20:32;99644.41;;;12.62;100.00
66273;BME280;58450;52.150;4.466;2023-03-13T04:23:01;99713.91;;;12.66;100.00
66273;BME280;58450;52.150;4.466;2023-03-13T04:25:29;99650.19;;;12.65;100.00
66273;BME280;58450;52.150;4.466;2023-03-13T04:27:56;99615.09;;;12.65;100.00
66273;BME280;58450;52.150;4.466;2023-03-13T04:30:24;99615.69;;;12.67;100.00
66273;BME280;58450;52.150;4.466;2023-03-13T04:32:52;99612.66;;;12.76;100.00
66273;BME280;58450;52.150;4.466;2023-03-13T04:35:19;99596.78;;;12.79;100.00
66273;BME280;58450;52.150;4.466;2023-03-13T04:37:47;99589.53;;;12.80;100.00
66273;BME280;58450;52.150;4.466;2023-03-13T04:40:16;99573.34;;;12.92;100.00
66273;BME280;58450;52.150;4.466;2023-03-13T04:42:43;99621.34;;;12.90;100.00
66273;BME280;58450;52.150;4.466;2023-03-13T04:45:11;99606.53;;;12.92;100.00
66273;BME280;58450;52.150;4.466;2023-03-13T04:47:39;99604.19;;;12.84;100.00
66273;BME280;58450;52.150;4.466;2023-03-13T04:50:07;99619.81;;;12.94;100.00
66273;BME280;58450;52.150;4.466;2023-03-13T04:52:35;99619.56;;;12.95;100.00
66273;BME280;58450;52.150;4.466;2023-03-13T04:55:03;99576.41;;;13.07;100.00
66273;BME280;58450;52.150;4.466;2023-03-13T04:57:32;99587.88;;;13.03;100.00
66273;BME280;58450;52.150;4.466;2023-03-13T05:00:00;99572.16;;;12.99;100.00
66273;BME280;58450;52.150;4.466;2023-03-13T05:02:27;99559.81;;;13.04;100.00
66273;BME280;58450;52.150;4.466;2023-03-13T05:04:55;99556.53;;;13.01;100.00
66273;BME280;58450;52.150;4.466;2023-03-13T05:07:23;99604.44;;;12.94;100.00
66273;BME280;58450;52.150;4.466;2023-03-13T05:09:50;99573.91;;;13.06;100.00
66273;BME280;58450;52.150;4.466;2023-03-13T05:12:18;99530.13;;;13.04;100.00
66273;BME280;58450;52.150;4.466;2023-03-13T05:14:46;99544.09;;;13.00;100.00
66273;BME280;58450;52.150;4.466;2023-03-13T05:17:15;99562.88;;;13.07;100.00
66273;BME280;58450;52.150;4.466;2023-03-13T05:19:42;99527.06;;;13.24;100.00
66273;BME280;58450;52.150;4.466;2023-03-13T05:22:10;99579.31;;;13.06;100.00
66273;BME280;58450;52.150;4.466;2023-03-13T05:24:37;99564.19;;;13.17;100.00
66273;BME280;58450;52.150;4.466;2023-03-13T05:27:05;99527.50;;;13.33;100.00
66273;BME280;58450;52.150;4.466;2023-03-13T05:29:32;99527.75;;;13.43;100.00
66273;BME280;58450;52.150;4.466;2023-03-13T05:32:01;99529.97;;;13.46;100.00
66273;BME280;58450;52.150;4.466;2023-03-13T05:34:29;99592.81;;;13.41;100.00
66273;BME280;58450;52.150;4.466;2023-03-13T05:36:56;99524.78;;;13.56;100.00
66273;BME280;58450;52.150;4.466;2023-03-13T05:39:24;99530.78;;;13.58;100.00
66273;BME280;58450;52.150;4.466;2023-03-13T05:41:51;99542.16;;;13.61;100.00
66273;BME280;58450;52.150;4.466;2023-03-13T05:44:19;99534.38;;;13.64;100.00
66273;BME280;58450;52.150;4.466;2023-03-13T05:46:46;99528.06;;;13.58;100.00
66273;BME280;58450;52.150;4.466;2023-03-13T05:49:15;99579.38;;;13.70;100.00
66273;BME280;58450;52.150;4.466;2023-03-13T05:51:43;99541.59;;;13.58;100.00
66273;BME280;58450;52.150;4.466;2023-03-13T05:54:10;99525.84;;;13.55;100.00
66273;BME280;58450;52.150;4.466;2023-03-13T05:56:38;99510.44;;;13.56;100.00
66273;BME280;58450;52.150;4.466;2023-03-13T05:59:05;99609.28;;;13.52;100.00
66273;BME280;58450;52.150;4.466;2023-03-13T06:01:33;99537.03;;;13.47;100.00
66273;BME280;58450;52.150;4.466;2023-03-13T06:04:00;99527.63;;;13.38;100.00
66273;BME280;58450;52.150;4.466;2023-03-13T06:06:29;99544.09;;;13.12;100.00
66273;BME280;58450;52.150;4.466;2023-03-13T06:08:57;99551.84;;;13.09;100.00
66273;BME280;58450;52.150;4.466;2023-03-13T06:11:24;99528.94;;;13.11;100.00
66273;BME280;58450;52.150;4.466;2023-03-13T06:13:52;99597.38;;;12.93;100.00
66273;BME280;58450;52.150;4.466;2023-03-13T06:16:19;99525.56;;;12.68;100.00
66273;BME280;58450;52.150;4.466;2023-03-13T06:18:47;99580.22;;;12.52;100.00
66273;BME280;58450;52.150;4.466;2023-03-13T06:21:15;99537.38;;;12.44;100.00
66273;BME280;58450;52.150;4.466;2023-03-13T06:23:43;99585.97;;;12.25;100.00
66273;BME280;58450;52.150;4.466;2023-03-13T06:26:11;99539.06;;;12.14;100.00
66273;BME280;58450;52.150;4.466;2023-03-13T06:28:38;99502.94;;;12.15;100.00
66273;BME280;58450;52.150;4.466;2023-03-13T06:31:06;99613.88;;;12.19;100.00
66273;BME280;58450;52.150;4.466;2023-03-13T06:33:34;99562.22;;;12.34;100.00
66273;BME280;58450;52.150;4.466;2023-03-13T06:36:03;99572.53;;;12.37;100.00
66273;BME280;58450;52.150;4.466;2023-03-13T06:38:31;99553.41;;;12.38;100.00
66273;BME280;58450;52.150;4.466;2023-03-13T06:41:00;99558.34;;;12.30;100.00
66273;BME280;58450;52.150;4.466;2023-03-13T06:43:27;99535.47;;;12.32;100.00
66273;BME280;58450;52.150;4.466;2023-03-13T06:45:55;99559.16;;;12.30;100.00
66273;BME280;58450;52.150;4.466;2023-03-13T06:48:23;99558.41;;;12.23;100.00
66273;BME280;58450;52.150;4.466;2023-03-13T06:50:51;99524.66;;;12.20;100.00
66273;BME280;58450;52.150;4.466;2023-03-13T06:53:21;99514.59;;;12.27;100.00
66273;BME280;58450;52.150;4.466;2023-03-13T06:55:49;99565.00;;;12.27;100.00
66273;BME280;58450;52.150;4.466;2023-03-13T06:58:18;99629.06;;;12.32;100.00
66273;BME280;58450;52.150;4.466;2023-03-13T07:00:45;99521.25;;;12.37;100.00
66273;BME280;58450;52.150;4.466;2023-03-13T07:03:13;99561.88;;;12.42;100.00
66273;BME280;58450;52.150;4.466;2023-03-13T07:05:40;99536.31;;;12.56;100.00
66273;BME280;58450;52.150;4.466;2023-03-13T07:08:08;99571.00;;;12.41;100.00
66273;BME280;58450;52.150;4.466;2023-03-13T07:10:35;99535.47;;;12.32;100.00
66273;BME280;58450;52.150;4.466;2023-03-13T07:13:03;99546.97;;;12.39;100.00
66273;BME280;58450;52.150;4.466;2023-03-13T07:15:32;99550.94;;;12.37;100.00
66273;BME280;58450;52.150;4.466;2023-03-13T07:17:59;99538.75;;;12.34;100.00
66273;BME280;58450;52.150;4.466;2023-03-13T07:20:27;99561.03;;;12.30;100.00
66273;BME280;58450;52.150;4.466;2023-03-13T07:22:54;99561.03;;;12.30;100.00
66273;BME280;58450;52.150;4.466;2023-03-13T07:25:22;99541.25;;;12.48;100.00
66273;BME280;58450;52.150;4.466;2023-03-13T07:27:50;99538.88;;;12.39;100.00
66273;BME280;58450;52.150;4.466;2023-03-13T07:30:18;99576.06;;;12.49;100.00
66273;BME280;58450;52.150;4.466;2023-03-13T07:32:48;99563.19;;;12.51;100.00
66273;BME280;58450;52.150;4.466;2023-03-13T07:35:15;99541.75;;;12.68;100.00
66273;BME280;58450;52.150;4.466;2023-03-13T07:37:43;99551.50;;;12.81;100.00
66273;BME280;58450;52.150;4.466;2023-03-13T07:40:11;99548.66;;;12.64;100.00
66273;BME280;58450;52.150;4.466;2023-03-13T07:42:39;99581.91;;;12.77;100.00
66273;BME280;58450;52.150;4.466;2023-03-13T07:45:08;99535.75;;;12.90;100.00
66273;BME280;58450;52.150;4.466;2023-03-13T07:47:36;99603.38;;;12.95;100.00
66273;BME280;58450;52.150;4.466;2023-03-13T07:50:05;99583.75;;;12.88;100.00
66273;BME280;58450;52.150;4.466;2023-03-13T07:52:34;99507.09;;;13.13;100.00
66273;BME280;58450;52.150;4.466;2023-03-13T07:55:01;99546.19;;;12.98;100.00
66273;BME280;58450;52.150;4.466;2023-03-13T07:57:29;99515.19;;;12.89;100.00
66273;BME280;58450;52.150;4.466;2023-03-13T07:59:57;99563.00;;;13.00;100.00
66273;BME280;58450;52.150;4.466;2023-03-13T08:02:24;99516.25;;;13.12;100.00
66273;BME280;58450;52.150;4.466;2023-03-13T08:04:52;99527.16;;;13.17;100.00
66273;BME280;58450;52.150;4.466;2023-03-13T08:07:22;99470.88;;;13.26;100.00
66273;BME280;58450;52.150;4.466;2023-03-13T08:09:49;99492.78;;;13.12;100.00
66273;BME280;58450;52.150;4.466;2023-03-13T08:12:17;99527.66;;;12.90;100.00
66273;BME280;58450;52.150;4.466;2023-03-13T08:14:44;99530.94;;;12.92;100.00
66273;BME280;58450;52.150;4.466;2023-03-13T08:17:12;99495.47;;;13.00;100.00
66273;BME280;58450;52.150;4.466;2023-03-13T08:19:40;99488.78;;;13.15;100.00
66273;BME280;58450;52.150;4.466;2023-03-13T08:22:07;99500.31;;;13.10;100.00
66273;BME280;58450;52.150;4.466;2023-03-13T08:24:36;99520.97;;;13.17;100.00
66273;BME280;58450;52.150;4.466;2023-03-13T08:27:03;99538.13;;;13.10;100.00
66273;BME280;58450;52.150;4.466;2023-03-13T08:29:31;99476.50;;;13.48;100.00
66273;BME280;58450;52.150;4.466;2023-03-13T08:31:59;99480.50;;;13.34;100.00
66273;BME280;58450;52.150;4.466;2023-03-13T08:34:26;99476.50;;;13.36;100.00
66273;BME280;58450;52.150;4.466;2023-03-13T08:36:54;99505.41;;;13.36;100.00
66273;BME280;58450;52.150;4.466;2023-03-13T08:39:21;99513.19;;;13.44;100.00
66273;BME280;58450;52.150;4.466;2023-03-13T08:41:50;99472.69;;;13.61;100.00
66273;BME280;58450;52.150;4.466;2023-03-13T08:44:18;99514.41;;;13.94;100.00
66273;BME280;58450;52.150;4.466;2023-03-13T08:46:46;99474.66;;;13.95;100.00
66273;BME280;58450;52.150;4.466;2023-03-13T08:49:14;99531.88;;;14.50;100.00
66273;BME280;58450;52.150;4.466;2023-03-13T08:51:42;99480.00;;;14.58;100.00
66273;BME280;58450;52.150;4.466;2023-03-13T08:54:10;99520.38;;;14.76;100.00
66273;BME280;58450;52.150;4.466;2023-03-13T08:56:38;99490.09;;;14.80;100.00
66273;BME280;58450;52.150;4.466;2023-03-13T08:59:07;99520.28;;;14.54;100.00
66273;BME280;58450;52.150;4.466;2023-03-13T09:01:36;99519.06;;;14.45;100.00
66273;BME280;58450;52.150;4.466;2023-03-13T09:04:04;99489.53;;;14.26;100.00
66273;BME280;58450;52.150;4.466;2023-03-13T09:06:32;99430.50;;;14.40;100.00
66273;BME280;58450;52.150;4.466;2023-03-13T09:09:01;99573.50;;;14.31;100.00
66273;BME280;58450;52.150;4.466;2023-03-13T09:11:30;99502.09;;;13.86;100.00
66273;BME280;58450;52.150;4.466;2023-03-13T09:13:58;99475.81;;;13.99;100.00
66273;BME280;58450;52.150;4.466;2023-03-13T09:16:28;99479.75;;;13.91;100.00
66273;BME280;58450;52.150;4.466;2023-03-13T09:18:57;99421.34;;;13.78;100.00
66273;BME280;58450;52.150;4.466;2023-03-13T09:21:27;99428.50;;;13.84;100.00
66273;BME280;58450;52.150;4.466;2023-03-13T09:23:56;99408.81;;;13.72;100.00
66273;BME280;58450;52.150;4.466;2023-03-13T09:26:24;99415.41;;;14.27;100.00
66273;BME280;58450;52.150;4.466;2023-03-13T09:28:53;99490.84;;;14.07;100.00
66273;BME280;58450;52.150;4.466;2023-03-13T09:31:22;99433.44;;;14.22;100.00
66273;BME280;58450;52.150;4.466;2023-03-13T09:33:53;99413.06;;;14.53;100.00
66273;BME280;58450;52.150;4.466;2023-03-13T09:36:22;99427.47;;;14.02;100.00
66273;BME280;58450;52.150;4.466;2023-03-13T09:38:50;99405.00;;;14.02;100.00
66273;BME280;58450;52.150;4.466;2023-03-13T09:41:23;99423.25;;;13.95;100.00
66273;BME280;58450;52.150;4.466;2023-03-13T09:44:01;99391.22;;;14.21;100.00
66273;BME280;58450;52.150;4.466;2023-03-13T09:46:39;99478.88;;;14.54;100.00
66273;BME280;58450;52.150;4.466;2023-03-13T09:49:20;99394.94;;;14.93;100.00
66273;BME280;58450;52.150;4.466;2023-03-13T09:52:01;99417.19;;;14.73;100.00
66273;BME280;58450;52.150;4.466;2023-03-13T09:54:40;99365.13;;;14.48;100.00
66273;BME280;58450;52.150;4.466;2023-03-13T09:57:17;99431.63;;;14.27;100.00
66273;BME280;58450;52.150;4.466;2023-03-13T09:59:54;99417.53;;;14.25;100.00
66273;BME280;58450;52.150;4.466;2023-03-13T10:02:28;99442.88;;;14.19;100.00
66273;BME280;58450;52.150;4.466;2023-03-13T10:05:13;99399.56;;;14.36;100.00
66273;BME280;58450;52.150;4.466;2023-03-13T10:07:43;99374.16;;;14.37;100.00
66273;BME280;58450;52.150;4.466;2023-03-13T10:10:14;99473.78;;;14.74;100.00
66273;BME280;58450;52.150;4.466;2023-03-13T10:12:45;99487.88;;;14.59;100.00
66273;BME280;58450;52.150;4.466;2023-03-13T10:15:31;99430.28;;;14.64;100.00
66273;BME280;58450;52.150;4.466;2023-03-13T10:18:13;99474.94;;;14.61;100.00
66273;BME280;58450;52.150;4.466;2023-03-13T10:20:47;99456.72;;;14.57;100.00
66273;BME280;58450;52.150;4.466;2023-03-13T10:23:24;99399.94;;;14.79;100.00
66273;BME280;58450;52.150;4.466;2023-03-13T10:26:10;99514.91;;;14.71;100.00
66273;BME280;58450;52.150;4.466;2023-03-13T10:28:43;99434.41;;;14.32;100.00
66273;BME280;58450;52.150;4.466;2023-03-13T10:31:17;99442.31;;;14.34;100.00
66273;BME280;58450;52.150;4.466;2023-03-13T10:33:51;99384.00;;;14.43;100.00
66273;BME280;58450;52.150;4.466;2023-03-13T10:36:20;99422.44;;;14.45;100.00
66273;BME280;58450;52.150;4.466;2023-03-13T10:38:50;99495.63;;;14.51;100.00
66273;BME280;58450;52.150;4.466;2023-03-13T10:41:30;99443.63;;;14.48;100.00
66273;BME280;58450;52.150;4.466;2023-03-13T10:44:04;99411.25;;;14.59;100.00
66273;BME280;58450;52.150;4.466;2023-03-13T10:46:35;99444.84;;;14.41;100.00
66273;BME280;58450;52.150;4.466;2023-03-13T10:49:13;99395.97;;;14.47;100.00
66273;BME280;58450;52.150;4.466;2023-03-13T10:51:46;99374.47;;;14.41;100.00
66273;BME280;58450;52.150;4.466;2023-03-13T10:54:21;99446.72;;;14.23;100.00
66273;BME280;58450;52.150;4.466;2023-03-13T10:56:51;99397.22;;;14.79;100.00
66273;BME280;58450;52.150;4.466;2023-03-13T10:59:38;99419.97;;;15.00;100.00
66273;BME280;58450;52.150;4.466;2023-03-13T11:02:21;99440.19;;;15.15;100.00
66273;BME280;58450;52.150;4.466;2023-03-13T11:04:51;99386.13;;;15.03;100.00
66273;BME280;58450;52.150;4.466;2023-03-13T11:07:25;99380.59;;;14.92;100.00
66273;BME280;58450;52.150;4.466;2023-03-13T11:10:00;99358.69;;;14.72;100.00
66273;BME280;58450;52.150;4.466;2023-03-13T11:12:33;99427.06;;;14.67;100.00
66273;BME280;58450;52.150;4.466;2023-03-13T11:15:05;99443.19;;;14.40;100.00
66273;BME280;58450;52.150;4.466;2023-03-13T11:17:41;99447.41;;;14.87;100.00
66273;BME280;58450;52.150;4.466;2023-03-13T11:20:22;99476.19;;;14.71;100.00
66273;BME280;58450;52.150;4.466;2023-03-13T11:23:08;99380.66;;;14.98;100.00
66273;BME280;58450;52.150;4.466;2023-03-13T11:25:52;99426.56;;;15.32;100.00
66273;BME280;58450;52.150;4.466;2023-03-13T11:28:38;99410.19;;;14.77;100.00
66273;BME280;58450;52.150;4.466;2023-03-13T11:31:18;99477.19;;;15.26;100.00
66273;BME280;58450;52.150;4.466;2023-03-13T11:33:55;99410.19;;;14.99;100.00
66273;BME280;58450;52.150;4.466;2023-03-13T11:36:33;99420.97;;;14.38;100.00
66273;BME280;58450;52.150;4.466;2023-03-13T11:39:15;99488.06;;;14.36;100.00
66273;BME280;58450;52.150;4.466;2023-03-13T11:42:07;99391.00;;;14.61;100.00
66273;BME280;58450;52.150;4.466;2023-03-13T11:44:58;99504.78;;;14.32;100.00
66273;BME280;58450;52.150;4.466;2023-03-13T11:47:44;99477.72;;;14.15;100.00
66273;BME280;58450;52.150;4.466;2023-03-13T11:50:34;99379.81;;;14.18;100.00
66273;BME280;58450;52.150;4.466;2023-03-13T11:53:24;99418.34;;;13.92;100.00
66273;BME280;58450;52.150;4.466;2023-03-13T11:56:13;99447.38;;;13.96;100.00
66273;BME280;58450;52.150;4.466;2023-03-13T11:58:56;99394.66;;;13.82;100.00
66273;BME280;58450;52.150;4.466;2023-03-13T12:01:36;99405.13;;;13.78;100.00
66273;BME280;58450;52.150;4.466;2023-03-13T12:04:14;99369.00;;;13.67;100.00
66273;BME280;58450;52.150;4.466;2023-03-13T12:06:53;99444.97;;;13.83;100.00
66273;BME280;58450;52.150;4.466;2023-03-13T12:09:29;99433.91;;;13.84;100.00
66273;BME280;58450;52.150;4.466;2023-03-13T12:12:04;99417.28;;;13.76;100.00
66273;BME280;58450;52.150;4.466;2023-03-13T12:14:45;99354.22;;;14.26;100.00
66273;BME280;58450;52.150;4.466;2023-03-13T12:17:27;99367.47;;;14.45;100.00
66273;BME280;58450;52.150;4.466;2023-03-13T12:20:01;99387.56;;;14.49;100.00
66273;BME280;58450;52.150;4.466;2023-03-13T12:22:37;99385.63;;;14.27;100.00
66273;BME280;58450;52.150;4.466;2023-03-13T12:25:18;99372.09;;;14.27;100.00
66273;BME280;58450;52.150;4.466;2023-03-13T12:27:53;99340.78;;;14.31;100.00
66273;BME280;58450;52.150;4.466;2023-03-13T12:30:32;99370.47;;;14.26;100.00
66273;BME280;58450;52.150;4.466;2023-03-13T12:33:15;99609.22;;;14.16;100.00
66273;BME280;58450;52.150;4.466;2023-03-13T12:35:56;99427.69;;;14.18;100.00
66273;BME280;58450;52.150;4.466;2023-03-13T12:38:36;99342.91;;;14.91;100.00
66273;BME280;58450;52.150;4.466;2023-03-13T12:41:16;99439.47;;;14.63;98.31
66273;BME280;58450;52.150;4.466;2023-03-13T12:43:49;99364.72;;;14.79;98.04
66273;BME280;58450;52.150;4.466;2023-03-13T12:46:33;99349.72;;;14.71;94.77
66273;BME280;58450;52.150;4.466;2023-03-13T12:49:21;99344.19;;;14.83;97.73
66273;BME280;58450;52.150;4.466;2023-03-13T12:52:21;99295.69;;;14.82;99.58
66273;BME280;58450;52.150;4.466;2023-03-13T12:55:19;99324.13;;;15.06;96.18
66273;BME280;58450;52.150;4.466;2023-03-13T12:58:24;99330.38;;;15.34;93.73
66273;BME280;58450;52.150;4.466;2023-03-13T13:01:01;99444.34;;;15.00;91.52
66273;BME280;58450;52.150;4.466;2023-03-13T13:03:33;99315.03;;;14.90;93.88
66273;BME280;58450;52.150;4.466;2023-03-13T13:06:06;99329.69;;;14.95;94.62
66273;BME280;58450;52.150;4.466;2023-03-13T13:08:40;99294.91;;;15.09;95.49
66273;BME280;58450;52.150;4.466;2023-03-13T13:11:47;99440.78;;;14.77;95.69